Time;durP1;ratioP1;P1;durP2;ratioP2;P2;SDS_P1;SDS_P2;PMS_P1;PMS_P2;Temp;Humidity;BMP_temperature;BMP_pressure;BME280_temperature;BME280_humidity;BME280_pressure;Samples;Min_cycle;Max_cycle;Signal;HPM_P1;HPM_P2
2021/12/14 00:01:21;;;;;;;7.32;4.43;;;7.60;99.90;;;;;;5009084;28;20053;-82
2021/12/14 00:03:51;;;;;;;5.97;4.45;;;7.60;99.90;;;;;;5008979;28;20034;-82
2021/12/14 00:06:19;;;;;;;6.43;4.85;;;7.60;99.90;;;;;;5008965;28;20050;-82
2021/12/14 00:08:59;;;;;;;8.13;5.05;;;7.60;99.90;;;;;;5035570;28;20032;-82
2021/12/14 00:14:27;;;;;;;7.97;5.63;;;7.60;99.90;;;;;;5066110;28;20045;-82
2021/12/14 00:16:58;;;;;;;7.00;4.95;;;7.60;99.90;;;;;;5049388;28;20021;-82
2021/12/14 00:19:26;;;;;;;7.85;4.68;;;7.60;99.90;;;;;;5049554;28;20059;-82
2021/12/14 00:21:54;;;;;;;10.88;6.13;;;7.60;99.90;;;;;;5049640;28;20071;-82
2021/12/14 00:24:23;;;;;;;7.85;5.63;;;7.60;99.90;;;;;;5065979;28;20088;-82
2021/12/14 00:26:57;;;;;;;8.93;6.05;;;7.60;99.90;;;;;;5049219;28;20040;-82
2021/12/14 00:29:36;;;;;;;9.82;5.32;;;7.60;99.90;;;;;;5059809;22;20113;-83
2021/12/14 00:32:07;;;;;;;7.93;5.20;;;7.60;99.90;;;;;;5052924;28;20037;-82
2021/12/14 00:34:38;;;;;;;9.32;5.78;;;7.60;99.90;;;;;;5069220;28;20071;-81
2021/12/14 00:37:16;;;;;;;9.43;5.95;;;7.60;99.90;;;;;;5052357;28;20115;-82
2021/12/14 00:39:42;;;;;;;7.80;5.55;;;7.60;99.90;;;;;;5069344;28;20052;-82
2021/12/14 00:42:10;;;;;;;11.63;6.22;;;7.60;99.90;;;;;;5069670;28;20032;-81
2021/12/14 00:44:35;;;;;;;10.52;6.80;;;7.60;99.90;;;;;;5052421;28;20459;-82
2021/12/14 00:47:03;;;;;;;10.77;6.95;;;7.60;99.90;;;;;;5052901;28;20039;-81
2021/12/14 00:49:28;;;;;;;9.73;5.22;;;7.60;99.90;;;;;;5052466;28;20036;-81
2021/12/14 00:51:54;;;;;;;11.38;6.70;;;7.50;99.90;;;;;;5069074;28;20032;-81
2021/12/14 00:54:22;;;;;;;10.25;6.15;;;7.60;99.90;;;;;;5069095;28;20074;-81
2021/12/14 00:56:50;;;;;;;10.45;5.63;;;7.60;99.90;;;;;;5052541;28;20028;-81
2021/12/14 00:59:18;;;;;;;9.15;5.93;;;7.50;99.90;;;;;;5052365;28;20054;-82
2021/12/14 01:02:08;;;;;;;7.60;4.72;;;7.60;99.90;;;;;;5052455;28;20460;-82
2021/12/14 01:04:57;;;;;;;8.95;4.88;;;7.60;99.90;;;;;;5044589;28;20041;-81
2021/12/14 01:07:30;;;;;;;6.75;5.10;;;7.60;99.90;;;;;;5068666;28;20025;-81
2021/12/14 01:09:59;;;;;;;6.68;4.32;;;7.60;99.90;;;;;;5052044;28;20028;-83
2021/12/14 01:12:38;;;;;;;7.03;4.38;;;7.60;99.90;;;;;;5068702;28;20055;-81
2021/12/14 01:15:29;;;;;;;8.60;5.15;;;7.60;99.90;;;;;;5051590;28;20059;-82
2021/12/14 01:24:33;;;;;;;7.45;4.72;;;7.60;99.90;;;;;;5004407;28;20045;-82
2021/12/14 01:26:59;;;;;;;10.10;5.03;;;7.60;99.90;;;;;;5039145;28;20085;-82
2021/12/14 01:29:25;;;;;;;7.10;4.78;;;7.60;99.90;;;;;;5068027;28;20547;-82
2021/12/14 01:31:55;;;;;;;7.60;4.85;;;7.60;99.90;;;;;;5051183;28;20385;-82
2021/12/14 01:34:22;;;;;;;9.23;5.05;;;7.60;99.90;;;;;;5051388;28;20044;-83
2021/12/14 01:36:53;;;;;;;9.05;5.38;;;7.60;99.90;;;;;;5051162;28;20095;-83
2021/12/14 01:42:04;;;;;;;12.50;6.20;;;7.60;99.90;;;;;;5048028;28;20519;-82
2021/12/14 01:44:35;;;;;;;9.65;6.43;;;7.60;99.90;;;;;;5031470;28;20112;-82
2021/12/14 01:47:12;;;;;;;10.18;6.68;;;7.60;99.90;;;;;;5031371;28;20040;-82
2021/12/14 01:49:46;;;;;;;8.90;5.53;;;7.60;99.90;;;;;;5048798;28;20101;-82
2021/12/14 01:52:33;;;;;;;9.45;5.18;;;7.60;99.90;;;;;;5064818;28;20033;-82
2021/12/14 01:55:12;;;;;;;8.35;4.57;;;7.60;99.90;;;;;;5047488;28;20068;-82
2021/12/14 01:57:39;;;;;;;7.30;5.25;;;7.60;99.90;;;;;;5047911;28;20040;-82
2021/12/14 02:00:12;;;;;;;6.70;4.32;;;7.60;99.90;;;;;;5031115;28;20037;-83
2021/12/14 02:02:45;;;;;;;7.10;4.70;;;7.60;99.90;;;;;;5048730;28;20064;-82
2021/12/14 02:05:22;;;;;;;5.85;3.90;;;7.60;99.90;;;;;;5031276;28;20029;-82
2021/12/14 02:07:49;;;;;;;7.85;5.10;;;7.60;99.90;;;;;;5031379;28;20022;-83
2021/12/14 02:10:33;;;;;;;8.70;5.63;;;7.50;99.90;;;;;;5031039;28;20040;-83
2021/12/14 02:12:59;;;;;;;10.45;8.23;;;7.50;99.90;;;;;;5047601;28;20072;-83
2021/12/14 02:15:34;;;;;;;10.98;8.35;;;7.50;99.90;;;;;;5031361;28;20072;-83
2021/12/14 02:18:17;;;;;;;10.38;7.75;;;7.60;99.90;;;;;;5031522;28;20044;-83
2021/12/14 02:20:52;;;;;;;10.93;7.38;;;7.60;99.90;;;;;;5031556;28;20035;-83
2021/12/14 02:23:18;;;;;;;9.82;7.10;;;7.60;99.90;;;;;;5031169;28;20036;-84
2021/12/14 02:25:43;;;;;;;11.48;6.90;;;7.50;99.90;;;;;;5030830;28;20037;-83
2021/12/14 02:31:03;;;;;;;7.47;5.60;;;7.60;99.90;;;;;;4967957;28;20059;-83
2021/12/14 02:33:33;;;;;;;6.88;4.78;;;7.60;99.90;;;;;;4968030;28;20098;-83
2021/12/14 02:36:05;;;;;;;6.70;4.90;;;7.50;99.90;;;;;;4952088;28;20049;-82
2021/12/14 02:38:31;;;;;;;7.35;4.55;;;7.60;99.90;;;;;;4961441;28;20530;-83
2021/12/14 02:41:01;;;;;;;10.43;5.78;;;7.60;99.90;;;;;;5003512;28;20077;-83
2021/12/14 02:43:47;;;;;;;8.35;5.50;;;7.60;99.90;;;;;;5002844;28;20030;-83
2021/12/14 02:46:23;;;;;;;8.48;5.75;;;7.60;99.90;;;;;;5003154;28;20546;-82
2021/12/14 02:48:52;;;;;;;7.60;5.30;;;7.60;99.90;;;;;;4971172;28;20041;-82
2021/12/14 02:51:25;;;;;;;9.10;6.27;;;7.60;99.90;;;;;;5003499;28;20038;-82
2021/12/14 02:53:55;;;;;;;8.45;5.90;;;7.60;99.90;;;;;;4987241;28;20062;-83
2021/12/14 02:56:23;;;;;;;;;;;7.60;99.90;;;;;;5003693;28;20076;-83
2021/12/14 02:58:54;;;;;;;7.72;5.28;;;7.60;99.90;;;;;;4971161;28;20044;-82
2021/12/14 03:01:20;;;;;;;10.02;7.70;;;7.60;99.90;;;;;;4990949;28;20065;-83
2021/12/14 03:03:46;;;;;;;12.50;7.88;;;7.60;99.90;;;;;;5006915;28;20026;-84
2021/12/14 03:06:19;;;;;;;12.07;8.45;;;7.60;99.90;;;;;;5006934;28;20040;-83
2021/12/14 03:08:56;;;;;;;9.90;7.20;;;7.60;99.90;;;;;;5043828;28;20037;-83
2021/12/14 03:11:22;;;;;;;11.85;8.40;;;7.60;99.90;;;;;;5054107;28;20054;-82
2021/12/14 03:13:51;;;;;;;13.65;9.25;;;7.60;99.90;;;;;;5054206;28;20037;-83
2021/12/14 03:16:24;;;;;;;12.30;8.40;;;7.60;99.90;;;;;;5054063;28;20100;-83
2021/12/14 03:18:53;;;;;;;11.32;8.35;;;7.60;99.90;;;;;;5070562;28;20036;-83
2021/12/14 03:21:24;;;;;;;12.07;8.15;;;7.50;99.90;;;;;;5053969;28;20032;-82
2021/12/14 03:23:53;;;;;;;12.02;7.90;;;7.60;99.90;;;;;;5054173;28;20115;-83
2021/12/14 03:26:22;;;;;;;13.10;9.18;;;7.60;99.90;;;;;;5053857;28;20028;-83
2021/12/14 03:28:51;;;;;;;14.90;8.87;;;7.50;99.90;;;;;;5070307;28;20123;-83
2021/12/14 03:31:32;;;;;;;16.25;9.77;;;7.60;99.90;;;;;;5053607;28;20040;-83
2021/12/14 03:34:07;;;;;;;13.20;8.70;;;7.60;99.90;;;;;;5053706;28;20041;-83
2021/12/14 03:36:49;;;;;;;11.02;7.50;;;7.60;99.90;;;;;;5053607;28;20024;-83
2021/12/14 03:39:24;;;;;;;12.95;9.05;;;7.50;99.90;;;;;;5050235;28;20059;-83
2021/12/14 03:41:54;;;;;;;12.93;8.82;;;7.50;99.90;;;;;;5033902;28;20362;-83
2021/12/14 03:44:22;;;;;;;12.02;8.10;;;7.50;99.90;;;;;;5050169;28;20033;-83
2021/12/14 03:46:56;;;;;;;12.85;8.68;;;7.50;99.90;;;;;;5033525;28;20044;-83
2021/12/14 03:49:29;;;;;;;11.90;8.70;;;7.50;99.90;;;;;;5033559;28;20096;-83
2021/12/14 03:51:57;;;;;;;13.82;8.70;;;7.50;99.90;;;;;;5033755;28;20385;-82
2021/12/14 03:54:24;;;;;;;11.27;7.38;;;7.50;99.90;;;;;;5033716;28;20037;-82
2021/12/14 03:56:52;;;;;;;14.20;9.68;;;7.50;99.90;;;;;;5033635;28;20076;-82
2021/12/14 03:59:21;;;;;;;13.38;9.07;;;7.50;99.90;;;;;;5033900;28;20025;-82
2021/12/14 04:01:50;;;;;;;12.55;8.52;;;7.50;99.90;;;;;;5050008;28;20056;-82
2021/12/14 04:04:24;;;;;;;12.43;8.25;;;7.50;99.90;;;;;;5033352;28;20531;-82
2021/12/14 04:06:54;;;;;;;11.98;8.27;;;7.50;99.90;;;;;;5049757;28;20025;-82
2021/12/14 04:09:23;;;;;;;12.63;8.88;;;7.50;99.90;;;;;;5050027;28;20165;-83
2021/12/14 04:11:50;;;;;;;17.35;9.73;;;7.50;99.90;;;;;;5048807;28;20029;-83
2021/12/14 04:14:16;;;;;;;13.60;8.77;;;7.50;99.90;;;;;;5033141;28;20048;-83
2021/12/14 04:16:45;;;;;;;14.25;9.55;;;7.50;99.90;;;;;;5033289;28;20048;-82
2021/12/14 04:19:15;;;;;;;13.98;9.02;;;7.50;99.90;;;;;;5033119;28;20055;-83
2021/12/14 04:21:45;;;;;;;13.90;8.88;;;7.50;99.90;;;;;;5033057;28;20319;-82
2021/12/14 04:24:20;;;;;;;11.88;8.32;;;7.50;99.90;;;;;;5033586;28;20100;-82
2021/12/14 04:26:46;;;;;;;14.48;9.57;;;7.40;99.90;;;;;;5049573;28;20029;-83
2021/12/14 04:29:17;;;;;;;12.15;8.50;;;7.40;99.90;;;;;;5032925;28;20049;-83
2021/12/14 04:31:45;;;;;;;13.85;9.32;;;7.50;99.90;;;;;;5032902;28;20090;-82
2021/12/14 04:34:14;;;;;;;16.20;11.02;;;7.50;99.90;;;;;;5032518;28;20048;-83
2021/12/14 04:36:43;;;;;;;14.50;10.30;;;7.40;99.90;;;;;;5049222;28;20029;-83
2021/12/14 04:53:25;;;;;;;15.02;8.48;;;7.40;99.90;;;;;;5068528;28;20035;-82
2021/12/14 04:55:53;;;;;;;14.90;9.65;;;7.40;99.90;;;;;;5052037;28;20064;-82
2021/12/14 04:58:33;;;;;;;14.68;10.10;;;7.40;99.90;;;;;;5051893;28;20035;-83
2021/12/14 05:01:00;;;;;;;13.83;9.97;;;7.40;99.90;;;;;;5068792;28;20443;-83
2021/12/14 05:03:34;;;;;;;14.05;9.00;;;7.40;99.90;;;;;;5052135;28;20487;-83
2021/12/14 05:06:13;;;;;;;13.13;9.05;;;7.40;99.90;;;;;;5051881;28;20044;-83
2021/12/14 05:11:14;;;;;;;17.27;11.52;;;7.40;99.90;;;;;;5068647;28;20391;-83
2021/12/14 05:13:43;;;;;;;16.70;10.45;;;7.40;99.90;;;;;;5051936;28;20388;-83
2021/12/14 05:16:25;;;;;;;14.57;9.35;;;7.40;99.90;;;;;;5052556;28;20036;-83
2021/12/14 05:19:02;;;;;;;13.10;9.40;;;7.40;99.90;;;;;;5051993;28;20020;-82
2021/12/14 05:21:38;;;;;;;14.43;9.18;;;7.40;99.90;;;;;;5068252;28;20275;-83
2021/12/14 05:24:10;;;;;;;12.32;7.22;;;7.40;99.90;;;;;;5051841;28;20029;-82
2021/12/14 05:26:44;;;;;;;12.40;7.40;;;7.30;99.90;;;;;;5068259;28;20039;-83
2021/12/14 05:29:11;;;;;;;11.00;7.53;;;7.30;99.90;;;;;;5051369;28;20476;-83
2021/12/14 05:31:48;;;;;;;9.80;7.35;;;7.30;99.90;;;;;;5051825;28;20040;-83
2021/12/14 05:34:16;;;;;;;12.38;8.10;;;7.30;99.90;;;;;;5051527;28;20062;-83
2021/12/14 05:36:44;;;;;;;8.43;5.03;;;7.30;99.90;;;;;;5051353;28;20060;-83
2021/12/14 05:39:26;;;;;;;13.10;7.68;;;7.30;99.90;;;;;;5051397;28;20263;-83
2021/12/14 05:45:16;;;;;;;10.30;6.25;;;7.30;99.90;;;;;;5067852;28;20088;-83
2021/12/14 05:47:50;;;;;;;11.15;6.50;;;7.30;99.90;;;;;;5068059;28;20029;-82
2021/12/14 05:50:32;;;;;;;10.57;6.10;;;7.30;99.90;;;;;;5052177;28;20028;-84
2021/12/14 05:52:59;;;;;;;10.40;5.57;;;7.30;99.90;;;;;;5048236;28;20024;-83
2021/12/14 05:55:30;;;;;;;8.30;5.45;;;7.30;99.90;;;;;;5051108;28;20039;-84
2021/12/14 05:57:57;;;;;;;10.60;5.88;;;7.30;99.90;;;;;;5051162;28;20090;-84
2021/12/14 06:00:25;;;;;;;9.07;5.30;;;7.30;99.90;;;;;;5050943;28;20036;-84
2021/12/14 06:02:59;;;;;;;9.57;5.80;;;7.30;99.90;;;;;;5052253;28;20032;-82
2021/12/14 06:05:28;;;;;;;10.18;6.00;;;7.30;99.90;;;;;;5067510;28;20096;-84
2021/12/14 06:07:55;;;;;;;9.20;5.05;;;7.30;99.90;;;;;;5050495;28;20056;-85
2021/12/14 06:10:23;;;;;;;12.90;7.72;;;7.30;99.90;;;;;;5050961;28;20479;-84
2021/12/14 06:12:49;;;;;;;11.10;5.78;;;7.30;99.90;;;;;;5050726;28;20021;-84
2021/12/14 06:15:25;;;;;;;10.77;5.35;;;7.30;99.90;;;;;;5067510;28;20046;-84
2021/12/14 06:17:51;;;;;;;9.43;4.85;;;7.30;99.90;;;;;;5051098;28;20511;-84
2021/12/14 06:20:36;;;;;;;10.60;5.55;;;7.30;99.90;;;;;;5070517;28;20058;-83
2021/12/14 06:23:07;;;;;;;9.63;4.90;;;7.30;99.90;;;;;;5051524;28;20045;-84
2021/12/14 06:25:52;;;;;;;8.70;4.93;;;7.30;99.90;;;;;;5070369;28;20380;-84
2021/12/14 06:28:38;;;;;;;8.70;4.55;;;7.30;99.90;;;;;;5050946;28;20028;-84
2021/12/14 06:31:06;;;;;;;9.52;4.68;;;7.30;99.90;;;;;;4987550;28;20122;-84
2021/12/14 06:33:34;;;;;;;8.52;4.55;;;7.30;99.90;;;;;;5003621;28;20061;-84
2021/12/14 06:36:01;;;;;;;11.85;5.93;;;7.30;99.90;;;;;;5007218;28;20077;-84
2021/12/14 06:38:29;;;;;;;10.63;5.47;;;7.30;99.90;;;;;;5001852;28;20031;-84
2021/12/14 06:41:22;;;;;;;9.75;4.88;;;7.30;99.90;;;;;;5007377;28;20057;-84
2021/12/14 06:43:58;;;;;;;12.27;5.97;;;7.30;99.90;;;;;;4991248;28;20054;-84
2021/12/14 06:46:40;;;;;;;11.63;6.07;;;7.30;99.90;;;;;;4991121;28;20027;-83
2021/12/14 06:49:15;;;;;;;13.40;7.47;;;7.30;99.90;;;;;;5006134;28;20049;-85
2021/12/14 06:51:48;;;;;;;14.75;7.07;;;7.30;99.90;;;;;;4984325;28;20018;-85
2021/12/14 06:54:26;;;;;;;14.07;7.28;;;7.30;99.90;;;;;;5001116;28;20058;-84
2021/12/14 06:57:12;;;;;;;15.48;7.18;;;7.30;99.90;;;;;;5011581;28;20734;-85
2021/12/14 06:59:44;;;;;;;11.02;6.10;;;7.30;99.90;;;;;;5004588;28;20026;-84
2021/12/14 07:02:12;;;;;;;11.98;6.30;;;7.30;99.90;;;;;;5026464;28;20068;-85
2021/12/14 07:05:01;;;;;;;12.70;5.47;;;7.30;99.90;;;;;;4995836;28;20043;-84
2021/12/14 07:07:32;;;;;;;12.80;6.43;;;7.30;99.90;;;;;;5006310;28;20040;-84
2021/12/14 07:10:04;;;;;;;10.98;5.22;;;7.30;99.90;;;;;;5048183;28;20036;-83
2021/12/14 07:12:37;;;;;;;12.90;6.50;;;7.30;99.90;;;;;;5050978;28;20028;-83
2021/12/14 07:15:25;;;;;;;17.85;8.15;;;7.30;99.90;;;;;;5050864;28;20131;-83
2021/12/14 07:18:03;;;;;;;14.52;7.45;;;7.30;99.90;;;;;;5061304;28;20090;-84
2021/12/14 07:20:34;;;;;;;20.05;8.98;;;7.30;99.90;;;;;;5033679;28;20033;-84
2021/12/14 07:23:20;;;;;;;15.57;8.02;;;7.30;99.90;;;;;;5049152;28;20029;-84
2021/12/14 07:25:52;;;;;;;16.58;8.95;;;7.30;99.90;;;;;;5049500;28;20060;-84
2021/12/14 07:28:42;;;;;;;17.30;8.50;;;7.30;99.90;;;;;;5055884;28;20119;-84
2021/12/14 07:31:15;;;;;;;18.27;8.27;;;7.30;99.90;;;;;;4951811;29;20047;-83
2021/12/14 07:33:45;;;;;;;17.30;9.25;;;7.30;99.90;;;;;;4957503;28;20058;-83
2021/12/14 07:36:19;;;;;;;17.38;8.70;;;7.30;99.90;;;;;;4966792;29;20054;-83
2021/12/14 07:38:48;;;;;;;15.82;8.85;;;7.30;99.90;;;;;;4970009;28;20034;-82
2021/12/14 07:41:25;;;;;;;16.92;9.05;;;7.30;99.90;;;;;;4950213;29;20535;-83
2021/12/14 07:44:09;;;;;;;17.92;9.07;;;7.30;99.90;;;;;;4957176;28;20573;-82
2021/12/14 07:46:46;;;;;;;18.90;9.27;;;7.30;99.90;;;;;;4978802;28;20090;-82
2021/12/14 07:49:24;;;;;;;16.00;9.23;;;7.30;99.90;;;;;;4969705;28;20128;-83
2021/12/14 07:51:54;;;;;;;17.25;9.13;;;7.30;99.90;;;;;;4950707;29;20116;-83
2021/12/14 07:54:25;;;;;;;18.70;9.57;;;7.30;99.90;;;;;;4977919;28;20046;-83
2021/12/14 07:57:11;;;;;;;19.00;9.50;;;7.30;99.90;;;;;;4969799;28;20062;-83
2021/12/14 07:59:58;;;;;;;18.63;9.38;;;7.30;99.90;;;;;;4966205;28;20039;-83
2021/12/14 08:02:29;;;;;;;18.80;9.02;;;7.30;99.90;;;;;;4982468;28;20039;-84
2021/12/14 08:05:15;;;;;;;18.98;9.63;;;7.30;99.90;;;;;;4969370;28;20030;-84
2021/12/14 08:07:47;;;;;;;18.90;9.73;;;7.30;99.90;;;;;;5012592;28;20067;-84
2021/12/14 08:10:24;;;;;;;20.70;10.45;;;7.30;99.90;;;;;;5048922;28;20100;-85
2021/12/14 08:13:09;;;;;;;19.30;9.55;;;7.30;99.90;;;;;;5069415;28;20035;-84
2021/12/14 08:15:41;;;;;;;18.02;9.02;;;7.30;99.90;;;;;;5034876;28;20501;-85
2021/12/14 08:18:14;;;;;;;18.83;9.68;;;7.40;99.90;;;;;;5042336;28;20062;-84
2021/12/14 08:21:00;;;;;;;19.45;10.38;;;7.30;99.90;;;;;;5054747;28;20056;-83
2021/12/14 08:23:28;;;;;;;19.27;10.52;;;7.40;99.90;;;;;;5043483;28;20035;-85
2021/12/14 08:26:06;;;;;;;21.50;11.05;;;7.40;99.90;;;;;;5040165;28;20039;-86
2021/12/14 08:32:11;;;;;;;20.23;11.23;;;7.50;99.90;;;;;;5002989;28;20061;-84
2021/12/14 08:34:46;;;;;;;21.45;11.38;;;7.40;99.90;;;;;;4996210;28;20399;-85
2021/12/14 08:37:19;;;;;;;24.45;12.68;;;7.50;99.90;;;;;;4992052;28;20044;-83
2021/12/14 08:39:52;;;;;;;20.95;10.48;;;7.50;99.90;;;;;;5005299;28;20034;-83
2021/12/14 08:42:32;;;;;;;22.65;11.48;;;7.50;99.90;;;;;;4980049;28;20043;-84
2021/12/14 08:45:00;;;;;;;22.85;12.05;;;7.50;99.90;;;;;;4996113;28;20136;-84
2021/12/14 08:47:34;;;;;;;24.90;13.32;;;7.60;99.90;;;;;;4995243;28;20106;-84
2021/12/14 08:50:06;;;;;;;24.15;12.52;;;7.60;99.90;;;;;;4994882;28;20041;-83
2021/12/14 08:52:33;;;;;;;24.80;12.35;;;7.60;99.90;;;;;;4979117;28;20057;-84
2021/12/14 08:55:01;;;;;;;22.95;12.13;;;7.70;99.90;;;;;;4987823;28;20053;-83
2021/12/14 08:57:29;;;;;;;23.65;12.45;;;7.70;99.90;;;;;;4999104;28;20088;-85
2021/12/14 09:00:01;;;;;;;21.05;11.23;;;7.70;99.90;;;;;;5005258;28;20026;-85
2021/12/14 09:02:29;;;;;;;23.30;12.98;;;7.80;99.90;;;;;;5001946;28;20030;-84
2021/12/14 09:05:00;;;;;;;22.48;12.13;;;7.80;99.90;;;;;;4971406;28;20165;-83
2021/12/14 09:07:29;;;;;;;27.58;13.30;;;7.80;99.90;;;;;;5002200;28;20062;-84
2021/12/14 09:09:56;;;;;;;25.67;12.93;;;7.90;99.90;;;;;;4983638;28;20026;-84
2021/12/14 09:12:31;;;;;;;24.05;12.77;;;8.00;99.90;;;;;;4982536;28;20038;-83
2021/12/14 09:15:04;;;;;;;26.58;13.20;;;8.00;99.90;;;;;;4995003;28;20038;-85
2021/12/14 09:17:30;;;;;;;24.40;13.15;;;8.00;99.90;;;;;;4998990;28;20089;-84
2021/12/14 09:20:04;;;;;;;24.63;12.10;;;8.10;99.90;;;;;;4992354;28;20110;-84
2021/12/14 09:22:36;;;;;;;24.10;12.27;;;8.10;99.90;;;;;;5002693;28;20038;-83
2021/12/14 09:25:05;;;;;;;24.05;12.68;;;8.10;99.90;;;;;;5000540;28;20093;-84
2021/12/14 09:27:34;;;;;;;23.55;11.88;;;8.10;99.90;;;;;;5003084;28;20548;-84
2021/12/14 09:30:01;;;;;;;25.37;12.93;;;8.10;99.90;;;;;;4986684;28;20082;-83
2021/12/14 09:32:28;;;;;;;25.85;13.93;;;8.10;99.90;;;;;;5000932;28;20032;-84
2021/12/14 09:34:59;;;;;;;29.20;14.70;;;8.10;99.90;;;;;;4983968;28;20137;-84
2021/12/14 09:37:28;;;;;;;30.95;15.57;;;8.10;99.90;;;;;;4997502;28;20122;-83
2021/12/14 09:40:11;;;;;;;27.05;14.18;;;8.10;99.90;;;;;;4987154;28;20508;-84
2021/12/14 09:42:38;;;;;;;29.45;14.82;;;8.20;99.90;;;;;;4991688;28;20076;-85
2021/12/14 09:45:12;;;;;;;28.00;13.57;;;8.20;99.90;;;;;;4971056;28;20061;-85
2021/12/14 09:47:39;;;;;;;26.58;13.70;;;8.20;99.90;;;;;;4992466;28;20110;-86
2021/12/14 09:50:12;;;;;;;32.90;16.45;;;8.30;99.90;;;;;;4987542;28;20042;-85
2021/12/14 09:52:43;;;;;;;25.48;14.05;;;8.30;99.90;;;;;;4994184;28;20041;-84
2021/12/14 09:55:18;;;;;;;31.17;16.40;;;8.40;99.90;;;;;;5001172;28;20122;-85
2021/12/14 09:57:51;;;;;;;28.27;14.43;;;8.40;99.90;;;;;;4986975;28;20046;-84
2021/12/14 10:00:48;;;;;;;27.83;15.23;;;8.40;99.90;;;;;;4987925;28;20041;-86
2021/12/14 10:03:15;;;;;;;33.67;17.88;;;8.50;99.90;;;;;;4998115;28;20031;-86
2021/12/14 10:05:53;;;;;;;32.17;16.85;;;8.40;99.90;;;;;;4973887;28;20078;-85
2021/12/14 10:08:26;;;;;;;29.00;15.73;;;8.50;99.90;;;;;;4986956;28;20035;-85
2021/12/14 10:11:25;;;;;;;29.50;16.02;;;8.50;99.90;;;;;;4986616;28;20070;-86
2021/12/14 10:13:54;;;;;;;33.10;16.60;;;8.40;99.90;;;;;;4984888;28;20035;-85
2021/12/14 10:16:21;;;;;;;32.97;17.43;;;8.50;99.90;;;;;;5000393;28;20125;-86
2021/12/14 10:18:54;;;;;;;30.48;15.80;;;8.50;99.90;;;;;;4987837;28;20285;-85
2021/12/14 10:21:29;;;;;;;32.78;18.10;;;8.50;99.90;;;;;;5002069;28;20094;-86
2021/12/14 10:23:59;;;;;;;29.80;15.35;;;8.50;99.90;;;;;;4993548;28;20054;-87
2021/12/14 10:26:26;;;;;;;38.33;20.48;;;8.50;99.90;;;;;;5001005;28;20097;-86
2021/12/14 10:32:07;;;;;;;33.10;17.23;;;8.50;99.90;;;;;;5000894;28;20057;-85
2021/12/14 10:34:39;;;;;;;34.83;17.13;;;8.50;99.90;;;;;;4963742;28;20051;-86
2021/12/14 10:37:16;;;;;;;36.35;16.98;;;8.50;99.90;;;;;;4977418;28;20038;-85
2021/12/14 10:45:15;;;;;;;33.85;17.52;;;8.60;99.90;;;;;;4998578;28;20030;-88
2021/12/14 10:47:41;;;;;;;34.13;17.63;;;8.60;99.90;;;;;;4982229;28;20089;-89
2021/12/14 10:50:15;;;;;;;31.60;16.48;;;8.60;99.90;;;;;;4969203;28;20042;-85
2021/12/14 10:52:43;;;;;;;35.88;18.30;;;8.60;99.90;;;;;;4980917;28;20033;-86
2021/12/14 10:55:15;;;;;;;36.88;18.63;;;8.60;99.90;;;;;;4984966;28;20061;-86
2021/12/14 10:57:41;;;;;;;34.25;16.02;;;8.60;99.90;;;;;;4980920;28;20026;-85
2021/12/14 11:00:19;;;;;;;38.80;18.40;;;8.70;99.90;;;;;;4983084;28;20485;-85
2021/12/14 11:02:45;;;;;;;32.90;17.15;;;8.70;99.90;;;;;;4992152;28;20022;-87
2021/12/14 11:05:17;;;;;;;36.50;17.52;;;8.80;99.90;;;;;;4973912;28;20070;-88
2021/12/14 11:07:46;;;;;;;35.20;18.20;;;8.70;99.90;;;;;;4977817;28;20026;-86
2021/12/14 11:10:24;;;;;;;44.47;21.73;;;8.70;99.90;;;;;;4983625;28;20482;-86
2021/12/14 11:13:13;;;;;;;36.60;19.02;;;8.70;99.90;;;;;;4975952;28;20341;-84
2021/12/14 11:15:48;;;;;;;39.05;19.40;;;8.80;99.90;;;;;;4977874;28;20057;-85
2021/12/14 11:18:24;;;;;;;38.72;20.23;;;8.80;99.90;;;;;;4979712;28;20066;-85
2021/12/14 11:21:07;;;;;;;40.78;22.00;;;8.90;99.90;;;;;;4984072;28;20038;-91
2021/12/14 11:23:49;;;;;;;39.25;21.02;;;8.90;99.90;;;;;;4979788;28;20034;-86
2021/12/14 11:26:20;;;;;;;35.55;18.23;;;8.90;99.90;;;;;;4981152;28;20200;-85
2021/12/14 11:28:51;;;;;;;37.95;19.30;;;9.10;99.90;;;;;;4982847;28;20038;-86
2021/12/14 11:31:32;;;;;;;43.38;22.45;;;9.10;99.90;;;;;;4972392;28;20065;-85
2021/12/14 11:34:00;;;;;;;;;;;9.10;99.90;;;;;;4991415;28;20102;-83
2021/12/14 11:36:33;;;;;;;39.17;19.83;;;9.10;99.90;;;;;;4998781;28;19948;-86
2021/12/14 11:39:24;;;;;;;40.55;19.95;;;9.10;99.90;;;;;;4999761;28;20062;-85
2021/12/14 11:42:09;;;;;;;38.83;19.80;;;9.10;99.90;;;;;;4984884;28;20073;-86
2021/12/14 11:44:47;;;;;;;39.28;20.33;;;9.10;99.90;;;;;;4996330;28;20034;-85
2021/12/14 11:50:05;;;;;;;40.95;20.35;;;9.20;99.90;;;;;;4976324;28;20027;-86
2021/12/14 11:52:50;;;;;;;38.97;21.40;;;9.20;99.90;;;;;;4995749;28;20102;-84
2021/12/14 11:58:56;;;;;;;41.45;21.95;;;9.10;99.90;;;;;;4989206;28;20034;-86
2021/12/14 12:01:30;;;;;;;45.08;21.90;;;9.10;99.90;;;;;;4973477;28;20050;-86
2021/12/14 12:04:10;;;;;;;41.63;22.00;;;9.10;99.90;;;;;;4959855;28;20031;-85
2021/12/14 12:09:41;;;;;;;44.95;22.30;;;9.20;99.90;;;;;;4979475;28;20045;-86
2021/12/14 12:12:15;;;;;;;41.22;20.60;;;9.20;99.90;;;;;;4962111;28;20088;-86
2021/12/14 12:14:50;;;;;;;43.65;21.70;;;9.20;99.90;;;;;;4978260;28;20047;-86
2021/12/14 12:17:36;;;;;;;42.50;22.10;;;9.10;99.90;;;;;;5005144;28;20053;-86
2021/12/14 12:20:16;;;;;;;43.30;23.35;;;9.20;99.90;;;;;;4980103;28;20112;-87
2021/12/14 12:23:07;;;;;;;39.63;20.27;;;9.10;99.90;;;;;;4971181;28;20030;-86
2021/12/14 12:25:32;;;;;;;;;;;9.20;99.90;;;;;;5000353;28;20042;-86
2021/12/14 12:28:08;;;;;;;39.40;20.83;;;9.10;99.90;;;;;;4983975;28;20024;-88
2021/12/14 12:30:47;;;;;;;36.75;19.25;;;9.10;99.90;;;;;;4962578;28;20050;-88
2021/12/14 12:33:30;;;;;;;34.58;18.42;;;9.10;99.90;;;;;;4979537;28;20034;-86
2021/12/14 12:36:19;;;;;;;40.70;20.95;;;9.10;99.90;;;;;;4971510;28;20033;-87
2021/12/14 12:38:56;;;;;;;33.50;18.88;;;9.20;99.90;;;;;;4983436;28;20321;-88
2021/12/14 12:41:36;;;;;;;39.25;21.45;;;9.20;99.90;;;;;;5002738;28;20054;-87
2021/12/14 12:44:23;;;;;;;39.42;20.92;;;9.20;99.90;;;;;;4980146;28;20054;-86
2021/12/14 12:46:59;;;;;;;45.35;23.30;;;9.20;99.90;;;;;;4979429;28;20082;-87
2021/12/14 12:49:29;;;;;;;45.72;24.25;;;9.20;99.90;;;;;;4978811;28;20061;-87
2021/12/14 12:51:57;;;;;;;43.33;23.03;;;9.20;99.90;;;;;;4981054;28;20037;-87
2021/12/14 12:54:29;;;;;;;46.47;24.27;;;9.20;99.90;;;;;;4986320;28;20046;-86
2021/12/14 12:57:13;;;;;;;45.00;24.58;;;9.20;99.90;;;;;;4998546;28;20042;-86
2021/12/14 12:59:41;;;;;;;56.42;28.00;;;9.20;99.90;;;;;;4963017;28;20019;-86
2021/12/14 13:02:33;;;;;;;50.08;25.33;;;9.20;99.90;;;;;;4962336;28;20105;-86
2021/12/14 13:05:06;;;;;;;54.83;30.83;;;9.20;99.90;;;;;;4945606;28;20081;-86
2021/12/14 13:07:39;;;;;;;57.05;28.95;;;9.20;99.90;;;;;;4974192;28;20031;-86
2021/12/14 13:10:17;;;;;;;45.15;25.88;;;9.20;99.90;;;;;;4976276;28;20038;-87
2021/12/14 13:13:04;;;;;;;47.67;26.02;;;9.30;99.90;;;;;;4986003;28;20046;-87
2021/12/14 13:15:43;;;;;;;44.90;24.10;;;9.30;99.90;;;;;;4985896;28;20093;-88
2021/12/14 13:18:14;;;;;;;47.97;25.63;;;9.30;99.90;;;;;;4986780;28;20117;-93
2021/12/14 13:20:40;;;;;;;39.03;20.70;;;9.30;99.90;;;;;;4994952;28;20042;-86
2021/12/14 13:23:06;;;;;;;59.40;30.67;;;9.20;99.90;;;;;;4978049;28;20053;-87
2021/12/14 13:25:35;;;;;;;53.13;27.17;;;9.20;99.90;;;;;;4976284;28;20085;-88
2021/12/14 13:28:01;;;;;;;47.53;24.63;;;9.20;99.90;;;;;;4978552;28;20066;-87
2021/12/14 13:30:30;;;;;;;48.67;26.45;;;9.20;99.90;;;;;;4963054;28;20051;-86
2021/12/14 13:32:56;;;;;;;44.33;23.33;;;9.10;99.90;;;;;;4980518;28;20087;-87
2021/12/14 13:35:25;;;;;;;50.92;26.08;;;9.10;99.90;;;;;;4972678;28;20086;-86
2021/12/14 13:37:58;;;;;;;42.03;22.45;;;9.10;99.90;;;;;;4977936;28;20027;-87
2021/12/14 13:40:52;;;;;;;54.95;27.98;;;9.20;99.90;;;;;;4968114;28;20057;-87
2021/12/14 13:43:17;;;;;;;66.57;31.02;;;9.10;99.90;;;;;;4974680;28;20035;-86
2021/12/14 13:45:45;;;;;;;52.42;27.27;;;9.10;99.90;;;;;;4977806;28;20039;-87
2021/12/14 13:48:13;;;;;;;53.40;28.58;;;9.10;99.90;;;;;;4981305;28;20099;-88
2021/12/14 13:50:45;;;;;;;51.63;27.00;;;9.10;99.90;;;;;;4983685;28;20062;-87
2021/12/14 13:53:12;;;;;;;52.33;25.83;;;9.00;99.90;;;;;;4967479;28;20121;-87
2021/12/14 13:55:42;;;;;;;41.35;21.75;;;9.10;99.90;;;;;;4975060;28;20125;-88
2021/12/14 13:58:10;;;;;;;56.95;26.70;;;9.10;99.90;;;;;;4990057;28;20034;-88
2021/12/14 14:00:45;;;;;;;54.55;26.45;;;9.10;99.90;;;;;;4978992;28;20047;-87
2021/12/14 14:03:12;;;;;;;49.78;26.65;;;9.00;99.90;;;;;;4981352;28;20098;-87
2021/12/14 14:05:41;;;;;;;55.03;27.55;;;9.00;99.90;;;;;;4965177;28;20122;-87
2021/12/14 14:08:15;;;;;;;49.55;24.52;;;9.00;99.90;;;;;;4997415;28;20042;-86
2021/12/14 14:10:42;;;;;;;48.85;24.23;;;9.00;99.90;;;;;;4980219;28;20038;-86
2021/12/14 14:13:18;;;;;;;57.85;26.30;;;9.00;99.90;;;;;;4976552;28;20238;-86